Time;durP1;ratioP1;P1;durP2;ratioP2;P2;SDS_P1;SDS_P2;PMS_P1;PMS_P2;Temp;Humidity;BMP_temperature;BMP_pressure;BME280_temperature;BME280_humidity;BME280_pressure;Samples;Min_cycle;Max_cycle;Signal;HPM_P1;HPM_P2
2021/08/11 00:00:07;;;;;;;10.07;7.47;;;;;;;;;;5044575;28;20034;-77
2021/08/11 00:02:32;;;;;;;11.43;8.43;;;;;;;;;;5026616;28;20025;-77
2021/08/11 00:04:57;;;;;;;9.68;8.35;;;;;;;;;;5025177;28;20476;-77
2021/08/11 00:07:23;;;;;;;8.80;7.75;;;;;;;;;;5030264;28;20050;-77
2021/08/11 00:09:48;;;;;;;12.15;8.50;;;;;;;;;;5029596;28;20496;-77
2021/08/11 00:12:14;;;;;;;10.43;8.68;;;;;;;;;;5012018;28;20038;-77
2021/08/11 00:14:39;;;;;;;11.88;8.70;;;;;;;;;;5027974;28;20056;-77
2021/08/11 00:17:05;;;;;;;10.57;8.57;;;;;;;;;;5030541;28;20041;-77
2021/08/11 00:19:30;;;;;;;9.65;8.23;;;;;;;;;;5027160;28;20120;-76
2021/08/11 00:21:56;;;;;;;10.60;8.85;;;;;;;;;;5026607;28;20845;-77
2021/08/11 00:24:21;;;;;;;11.40;8.93;;;;;;;;;;5028425;28;20045;-76
2021/08/11 00:26:47;;;;;;;10.02;8.27;;;;;;;;;;5011846;28;20040;-76
2021/08/11 00:29:12;;;;;;;11.70;9.25;;;;;;;;;;5042349;28;20547;-77
2021/08/11 00:31:37;;;;;;;12.45;9.05;;;;;;;;;;5007321;28;20041;-77
2021/08/11 00:34:03;;;;;;;11.38;9.18;;;;;;;;;;5027598;28;20029;-77
2021/08/11 00:36:28;;;;;;;10.38;8.57;;;;;;;;;;5033090;28;20708;-77
2021/08/11 00:38:54;;;;;;;10.77;8.65;;;;;;;;;;5028950;28;20051;-77
2021/08/11 00:41:19;;;;;;;10.70;8.98;;;;;;;;;;5009070;28;20041;-77
2021/08/11 00:43:45;;;;;;;10.60;8.57;;;;;;;;;;5006872;28;20072;-76
2021/08/11 00:46:10;;;;;;;10.68;8.68;;;;;;;;;;5020823;28;20037;-77
2021/08/11 00:48:38;;;;;;;10.32;8.35;;;;;;;;;;5021965;28;20557;-77
2021/08/11 00:51:04;;;;;;;11.32;8.68;;;;;;;;;;5023370;28;20029;-77
2021/08/11 00:53:31;;;;;;;13.07;8.90;;;;;;;;;;5022441;28;20030;-77
2021/08/11 00:55:58;;;;;;;10.68;8.57;;;;;;;;;;5023663;28;20402;-76
2021/08/11 00:58:25;;;;;;;12.60;8.93;;;;;;;;;;5024881;28;20042;-77
2021/08/11 01:00:51;;;;;;;10.70;8.48;;;;;;;;;;5021567;28;20042;-77
2021/08/11 01:03:19;;;;;;;13.70;9.00;;;;;;;;;;5012004;28;20088;-77
2021/08/11 01:05:45;;;;;;;12.57;9.45;;;;;;;;;;5005067;28;20033;-76
2021/08/11 01:08:11;;;;;;;12.27;9.30;;;;;;;;;;5023576;28;20077;-76
2021/08/11 01:10:38;;;;;;;13.38;10.05;;;;;;;;;;5023396;28;20036;-76
2021/08/11 01:13:04;;;;;;;14.57;9.68;;;;;;;;;;5023512;28;20654;-77
2021/08/11 01:15:29;;;;;;;10.60;9.50;;;;;;;;;;5026797;28;20033;-77
2021/08/11 01:17:55;;;;;;;11.05;9.48;;;;;;;;;;5005268;28;20505;-77
2021/08/11 01:20:20;;;;;;;12.00;10.18;;;;;;;;;;5005133;28;20040;-77
2021/08/11 01:22:50;;;;;;;10.43;9.18;;;;;;;;;;5021762;28;20056;-77
2021/08/11 01:25:36;;;;;;;11.02;9.45;;;;;;;;;;5021098;28;20093;-77
2021/08/11 01:28:26;;;;;;;13.65;9.45;;;;;;;;;;5020664;28;20033;-77
2021/08/11 01:31:07;;;;;;;10.43;9.02;;;;;;;;;;5038549;28;20080;-77
2021/08/11 01:34:17;;;;;;;10.88;9.13;;;;;;;;;;5022152;28;20021;-77
2021/08/11 01:36:53;;;;;;;12.88;9.52;;;;;;;;;;5019555;28;20083;-77
2021/08/11 01:39:36;;;;;;;11.07;8.95;;;;;;;;;;5021921;28;20497;-76
2021/08/11 01:42:06;;;;;;;12.63;9.27;;;;;;;;;;5021369;28;20037;-77
2021/08/11 01:45:01;;;;;;;10.95;9.10;;;;;;;;;;5018737;28;20029;-76
2021/08/11 01:47:36;;;;;;;12.48;8.85;;;;;;;;;;5025802;28;20599;-77
2021/08/11 01:50:02;;;;;;;12.85;9.18;;;;;;;;;;5026577;28;20025;-77
2021/08/11 01:52:28;;;;;;;12.25;8.98;;;;;;;;;;5022560;28;20060;-76
2021/08/11 01:54:54;;;;;;;10.23;8.73;;;;;;;;;;5025404;28;21327;-76
2021/08/11 01:57:19;;;;;;;13.13;9.32;;;;;;;;;;5029070;28;20033;-77
2021/08/11 01:59:47;;;;;;;14.38;9.95;;;;;;;;;;5014485;28;20078;-77
2021/08/11 02:02:14;;;;;;;11.02;8.48;;;;;;;;;;5029849;28;20026;-76
2021/08/11 02:04:41;;;;;;;12.88;9.57;;;;;;;;;;5014527;28;21289;-76
2021/08/11 02:07:07;;;;;;;11.55;8.98;;;;;;;;;;5044241;28;20040;-77
2021/08/11 02:09:35;;;;;;;12.63;9.20;;;;;;;;;;5028284;28;20041;-77
2021/08/11 02:12:00;;;;;;;11.40;9.00;;;;;;;;;;5026413;28;20133;-77
2021/08/11 02:14:26;;;;;;;12.38;8.65;;;;;;;;;;5025992;28;20186;-77
2021/08/11 02:16:51;;;;;;;11.35;8.40;;;;;;;;;;5014448;28;20389;-77
2021/08/11 02:19:17;;;;;;;13.85;8.48;;;;;;;;;;5031668;28;20048;-77
2021/08/11 02:21:42;;;;;;;11.00;8.90;;;;;;;;;;5043815;28;20108;-77
2021/08/11 02:24:11;;;;;;;10.70;8.52;;;;;;;;;;5024633;28;20164;-77
2021/08/11 02:26:48;;;;;;;11.05;8.35;;;;;;;;;;5027939;28;20048;-77
2021/08/11 02:29:22;;;;;;;11.02;8.93;;;;;;;;;;5027969;28;20362;-77
2021/08/11 02:32:00;;;;;;;11.35;8.63;;;;;;;;;;5031091;28;20382;-77
2021/08/11 02:34:45;;;;;;;11.10;8.75;;;;;;;;;;5027309;28;20095;-77
2021/08/11 02:37:17;;;;;;;10.93;8.32;;;;;;;;;;5029151;28;20446;-77
2021/08/11 02:40:15;;;;;;;12.00;8.98;;;;;;;;;;5028252;28;20029;-77
2021/08/11 02:42:47;;;;;;;10.52;8.77;;;;;;;;;;5028963;28;20025;-77
2021/08/11 02:45:17;;;;;;;11.13;9.20;;;;;;;;;;5026562;28;20038;-77
2021/08/11 02:47:43;;;;;;;10.38;8.32;;;;;;;;;;5027904;28;20030;-76
2021/08/11 02:50:10;;;;;;;13.07;9.18;;;;;;;;;;5027298;28;20040;-77
2021/08/11 02:52:37;;;;;;;11.90;9.38;;;;;;;;;;5022998;28;20776;-77
2021/08/11 02:55:04;;;;;;;11.95;8.90;;;;;;;;;;5029328;28;20030;-77
2021/08/11 02:57:30;;;;;;;11.27;9.30;;;;;;;;;;5030448;28;20040;-77
2021/08/11 02:59:56;;;;;;;10.95;8.55;;;;;;;;;;5025718;28;20033;-77
2021/08/11 03:02:23;;;;;;;11.07;8.38;;;;;;;;;;5021663;28;20041;-77
2021/08/11 03:04:48;;;;;;;13.10;8.50;;;;;;;;;;4996641;28;20040;-76
2021/08/11 03:07:14;;;;;;;9.95;8.18;;;;;;;;;;5012351;28;20030;-77
2021/08/11 03:09:40;;;;;;;10.25;8.32;;;;;;;;;;5024673;28;20042;-77
2021/08/11 03:12:09;;;;;;;10.90;8.10;;;;;;;;;;5025085;28;20484;-76
2021/08/11 03:14:38;;;;;;;12.88;8.43;;;;;;;;;;5042819;28;20044;-76
2021/08/11 03:17:08;;;;;;;9.23;7.80;;;;;;;;;;5024599;28;20040;-76
2021/08/11 03:19:33;;;;;;;10.82;8.32;;;;;;;;;;5042806;28;20442;-77
2021/08/11 03:21:59;;;;;;;10.60;7.88;;;;;;;;;;5029351;28;20120;-77
2021/08/11 03:24:24;;;;;;;11.90;8.23;;;;;;;;;;5032314;28;20041;-77
2021/08/11 03:26:50;;;;;;;10.55;8.15;;;;;;;;;;5023715;28;20033;-76
2021/08/11 03:29:15;;;;;;;10.02;8.25;;;;;;;;;;5020901;28;20033;-77
2021/08/11 03:31:40;;;;;;;10.77;8.43;;;;;;;;;;5005819;28;20053;-77
2021/08/11 03:34:06;;;;;;;9.18;7.78;;;;;;;;;;5022983;28;20031;-77
2021/08/11 03:36:31;;;;;;;8.95;7.80;;;;;;;;;;5009971;28;20116;-76
2021/08/11 03:38:57;;;;;;;9.32;7.63;;;;;;;;;;5023132;28;20674;-77
2021/08/11 03:41:22;;;;;;;8.93;7.55;;;;;;;;;;5024558;28;20034;-76
2021/08/11 03:43:48;;;;;;;9.30;7.50;;;;;;;;;;5027063;28;20057;-76
2021/08/11 03:46:13;;;;;;;9.02;7.60;;;;;;;;;;5013294;28;20041;-76
2021/08/11 03:48:38;;;;;;;9.25;7.65;;;;;;;;;;5007168;28;20049;-77
2021/08/11 03:51:04;;;;;;;9.07;7.78;;;;;;;;;;5024874;28;20095;-76
2021/08/11 03:53:29;;;;;;;9.57;8.02;;;;;;;;;;5024153;28;20508;-76
2021/08/11 03:55:55;;;;;;;9.15;7.35;;;;;;;;;;5028454;28;20477;-77
2021/08/11 03:58:20;;;;;;;8.90;7.75;;;;;;;;;;5026459;28;20033;-77
2021/08/11 04:00:46;;;;;;;11.13;8.13;;;;;;;;;;5027971;28;20133;-76
2021/08/11 04:03:11;;;;;;;9.52;7.60;;;;;;;;;;5024575;28;20052;-77
2021/08/11 04:05:36;;;;;;;8.98;7.38;;;;;;;;;;5006703;28;20026;-76
2021/08/11 04:08:02;;;;;;;9.13;7.32;;;;;;;;;;4983717;28;1090259;-76
2021/08/11 04:10:27;;;;;;;9.23;7.78;;;;;;;;;;5023865;28;20201;-77
2021/08/11 04:12:53;;;;;;;9.25;7.95;;;;;;;;;;5030527;28;20037;-76
2021/08/11 04:15:18;;;;;;;7.63;6.55;;;;;;;;;;5028018;28;20047;-77
2021/08/11 04:17:44;;;;;;;9.15;6.90;;;;;;;;;;5007840;28;20040;-77
2021/08/11 04:20:10;;;;;;;11.57;7.78;;;;;;;;;;5028528;28;20034;-76
2021/08/11 04:22:35;;;;;;;9.18;7.90;;;;;;;;;;5024991;28;20033;-76
2021/08/11 04:25:01;;;;;;;9.05;7.30;;;;;;;;;;5024551;28;20041;-77
2021/08/11 04:27:26;;;;;;;10.85;7.50;;;;;;;;;;5020279;28;20093;-77
2021/08/11 04:29:51;;;;;;;10.68;7.90;;;;;;;;;;5027854;28;20060;-77
2021/08/11 04:32:17;;;;;;;9.65;7.22;;;;;;;;;;5027047;28;20431;-76
2021/08/11 04:34:44;;;;;;;9.15;7.57;;;;;;;;;;5030611;28;20547;-76
2021/08/11 04:37:09;;;;;;;9.38;7.30;;;;;;;;;;5027240;28;20051;-77
2021/08/11 04:39:35;;;;;;;8.90;7.30;;;;;;;;;;4994012;28;20546;-76
2021/08/11 04:42:00;;;;;;;9.98;7.40;;;;;;;;;;5004601;28;20045;-76
2021/08/11 04:44:26;;;;;;;9.18;6.88;;;;;;;;;;5024533;28;20120;-77
2021/08/11 04:46:51;;;;;;;10.90;7.82;;;;;;;;;;5022625;28;20034;-76
2021/08/11 04:49:17;;;;;;;9.48;7.22;;;;;;;;;;5025150;28;20116;-76
2021/08/11 04:51:42;;;;;;;9.73;7.32;;;;;;;;;;5026847;28;20025;-77
2021/08/11 04:54:07;;;;;;;9.20;6.93;;;;;;;;;;5023027;28;20531;-76
2021/08/11 04:56:33;;;;;;;8.80;7.10;;;;;;;;;;5023266;28;20477;-77
2021/08/11 04:58:58;;;;;;;8.05;7.15;;;;;;;;;;5023593;28;20055;-77
2021/08/11 05:01:24;;;;;;;9.30;7.57;;;;;;;;;;5025192;28;20033;-77
2021/08/11 05:03:49;;;;;;;10.75;7.80;;;;;;;;;;5008896;28;20512;-76
2021/08/11 05:06:15;;;;;;;10.45;7.45;;;;;;;;;;5007419;28;20525;-76
2021/08/11 05:08:40;;;;;;;11.02;8.15;;;;;;;;;;5003754;28;20060;-77
2021/08/11 05:11:06;;;;;;;9.30;7.40;;;;;;;;;;5019722;28;20044;-77
2021/08/11 05:13:32;;;;;;;10.82;8.75;;;;;;;;;;5020920;28;20034;-76
2021/08/11 05:15:58;;;;;;;10.65;8.43;;;;;;;;;;5023997;28;20715;-77
2021/08/11 05:18:23;;;;;;;9.68;7.90;;;;;;;;;;5026426;28;20115;-76
2021/08/11 05:20:49;;;;;;;12.35;8.15;;;;;;;;;;5023357;28;20452;-76
2021/08/11 05:23:15;;;;;;;11.30;8.77;;;;;;;;;;5017023;28;20030;-77
2021/08/11 05:25:43;;;;;;;12.73;8.93;;;;;;;;;;5017730;28;20491;-77
2021/08/11 05:28:09;;;;;;;13.27;9.43;;;;;;;;;;5012754;28;20040;-77
2021/08/11 05:30:39;;;;;;;13.63;9.75;;;;;;;;;;5023137;28;20477;-76
2021/08/11 05:33:04;;;;;;;13.10;9.70;;;;;;;;;;5024821;28;20098;-77
2021/08/11 05:35:30;;;;;;;13.65;9.65;;;;;;;;;;5005398;28;20034;-77
2021/08/11 05:37:55;;;;;;;13.93;9.88;;;;;;;;;;5025856;28;20053;-77
2021/08/11 05:40:21;;;;;;;12.00;9.70;;;;;;;;;;5024966;28;20136;-77
2021/08/11 05:42:47;;;;;;;12.50;9.75;;;;;;;;;;5022068;28;21737;-77
2021/08/11 05:45:12;;;;;;;15.02;10.32;;;;;;;;;;5021259;28;20106;-77
2021/08/11 05:47:38;;;;;;;14.18;10.35;;;;;;;;;;5023193;28;20041;-77
2021/08/11 05:50:05;;;;;;;13.30;10.07;;;;;;;;;;5021460;28;20041;-77
2021/08/11 05:52:30;;;;;;;13.18;10.30;;;;;;;;;;5040254;28;20033;-77
2021/08/11 05:54:56;;;;;;;15.32;10.90;;;;;;;;;;5019048;28;20033;-77
2021/08/11 05:57:21;;;;;;;17.13;11.52;;;;;;;;;;5025046;28;20109;-77
2021/08/11 05:59:48;;;;;;;15.80;12.05;;;;;;;;;;5023206;28;20897;-77
2021/08/11 06:02:13;;;;;;;18.35;13.02;;;;;;;;;;5025417;28;20124;-77
2021/08/11 06:04:39;;;;;;;16.45;12.50;;;;;;;;;;5021029;28;20121;-77
2021/08/11 06:07:04;;;;;;;17.70;13.20;;;;;;;;;;5028447;28;20018;-77
2021/08/11 06:09:30;;;;;;;16.60;12.95;;;;;;;;;;5009489;28;20064;-77
2021/08/11 06:11:55;;;;;;;17.48;12.07;;;;;;;;;;5022598;28;20685;-77
2021/08/11 06:14:20;;;;;;;20.35;13.80;;;;;;;;;;5025441;28;20117;-77
2021/08/11 06:16:46;;;;;;;17.40;13.07;;;;;;;;;;5023096;28;20036;-77
2021/08/11 06:19:12;;;;;;;17.27;12.85;;;;;;;;;;5025174;28;20114;-77
2021/08/11 06:21:37;;;;;;;18.65;13.60;;;;;;;;;;5005018;28;20033;-77
2021/08/11 06:24:04;;;;;;;16.38;13.20;;;;;;;;;;5025191;28;20048;-77
2021/08/11 06:26:30;;;;;;;19.27;13.38;;;;;;;;;;5004941;28;20042;-77
2021/08/11 06:28:55;;;;;;;16.52;12.52;;;;;;;;;;5038837;28;20022;-76
2021/08/11 06:31:23;;;;;;;19.40;13.68;;;;;;;;;;5024827;28;20036;-77
2021/08/11 06:33:49;;;;;;;17.00;11.65;;;;;;;;;;5006538;28;20535;-77
2021/08/11 06:36:15;;;;;;;20.17;12.88;;;;;;;;;;5010724;28;20030;-77
2021/08/11 06:38:40;;;;;;;16.92;13.15;;;;;;;;;;5023230;28;20102;-77
2021/08/11 06:41:06;;;;;;;20.15;13.20;;;;;;;;;;5026391;28;20033;-77
2021/08/11 06:43:32;;;;;;;18.90;12.77;;;;;;;;;;5030147;28;20585;-77
2021/08/11 06:45:57;;;;;;;21.02;13.90;;;;;;;;;;5011473;28;20034;-77
2021/08/11 06:48:22;;;;;;;18.00;12.73;;;;;;;;;;5026743;28;20053;-77
2021/08/11 06:50:48;;;;;;;15.77;11.35;;;;;;;;;;5025915;28;20053;-76
2021/08/11 06:53:14;;;;;;;16.10;12.73;;;;;;;;;;5025313;28;20165;-77
2021/08/11 06:55:39;;;;;;;17.80;11.55;;;;;;;;;;5027149;28;20052;-77
2021/08/11 06:58:05;;;;;;;16.00;11.38;;;;;;;;;;5028134;28;20025;-77
2021/08/11 07:00:30;;;;;;;16.35;11.73;;;;;;;;;;5027324;28;20120;-77
2021/08/11 07:02:56;;;;;;;15.43;11.85;;;;;;;;;;4990551;28;20057;-77
2021/08/11 07:05:21;;;;;;;15.82;10.90;;;;;;;;;;5008059;28;20121;-76
2021/08/11 07:07:47;;;;;;;14.85;10.93;;;;;;;;;;5029934;28;20136;-77
2021/08/11 07:10:14;;;;;;;18.80;10.90;;;;;;;;;;5027123;28;20038;-77
2021/08/11 07:12:40;;;;;;;13.82;10.18;;;;;;;;;;5023647;28;20061;-77
2021/08/11 07:15:07;;;;;;;15.23;10.82;;;;;;;;;;5026148;28;20408;-76
2021/08/11 07:17:32;;;;;;;15.77;10.98;;;;;;;;;;5024586;28;20037;-77
2021/08/11 07:19:58;;;;;;;16.90;10.93;;;;;;;;;;5025434;28;20038;-77
2021/08/11 07:22:24;;;;;;;16.27;10.68;;;;;;;;;;5030016;28;20025;-76
2021/08/11 07:24:50;;;;;;;15.48;11.27;;;;;;;;;;5025153;28;20029;-77
2021/08/11 07:27:15;;;;;;;16.38;11.50;;;;;;;;;;5025721;28;20560;-77
2021/08/11 07:29:41;;;;;;;17.50;11.60;;;;;;;;;;5023710;28;20033;-77
2021/08/11 07:32:07;;;;;;;16.25;11.57;;;;;;;;;;5026389;28;20038;-77
2021/08/11 07:34:33;;;;;;;16.13;12.15;;;;;;;;;;5026613;28;20041;-77
2021/08/11 07:36:59;;;;;;;20.73;13.25;;;;;;;;;;5026308;28;20038;-76
2021/08/11 07:39:24;;;;;;;16.92;12.02;;;;;;;;;;5023937;28;20036;-77
2021/08/11 07:41:49;;;;;;;20.90;13.68;;;;;;;;;;5025386;28;20477;-77
2021/08/11 07:44:15;;;;;;;17.65;12.88;;;;;;;;;;5023837;28;20117;-77
2021/08/11 07:46:40;;;;;;;19.98;13.15;;;;;;;;;;5025167;28;20037;-77
2021/08/11 07:49:06;;;;;;;19.48;13.32;;;;;;;;;;5026003;28;20504;-77
2021/08/11 07:51:31;;;;;;;19.92;12.82;;;;;;;;;;5026140;28;20384;-76
2021/08/11 07:53:56;;;;;;;16.13;12.00;;;;;;;;;;5022022;28;20026;-77
2021/08/11 07:56:22;;;;;;;18.00;12.20;;;;;;;;;;5025875;28;20079;-77
2021/08/11 07:58:48;;;;;;;15.98;11.45;;;;;;;;;;5028131;28;20490;-77
2021/08/11 08:01:14;;;;;;;20.40;13.27;;;;;;;;;;5023256;28;20488;-77
2021/08/11 08:03:39;;;;;;;20.92;13.52;;;;;;;;;;5026029;28;20041;-76
2021/08/11 08:06:05;;;;;;;21.05;13.10;;;;;;;;;;5007517;28;20129;-77
2021/08/11 08:08:32;;;;;;;19.48;12.35;;;;;;;;;;5022663;28;20045;-77
2021/08/11 08:10:58;;;;;;;19.42;12.23;;;;;;;;;;5026083;28;20444;-77
2021/08/11 08:13:23;;;;;;;14.82;11.60;;;;;;;;;;5028227;28;20048;-77
2021/08/11 08:15:49;;;;;;;20.13;12.52;;;;;;;;;;5031652;28;20034;-77
2021/08/11 08:18:21;;;;;;;17.80;12.52;;;;;;;;;;5029831;28;20373;-77
2021/08/11 08:20:50;;;;;;;21.48;13.82;;;;;;;;;;5035008;28;20026;-77
2021/08/11 08:23:16;;;;;;;18.48;12.82;;;;;;;;;;5030394;28;20084;-77
2021/08/11 08:25:41;;;;;;;19.25;11.95;;;;;;;;;;5013945;28;20033;-77
2021/08/11 08:28:07;;;;;;;19.10;11.52;;;;;;;;;;5014883;28;20025;-77
2021/08/11 08:30:32;;;;;;;19.23;12.70;;;;;;;;;;4998000;28;20037;-77
2021/08/11 08:32:58;;;;;;;16.95;12.02;;;;;;;;;;5017920;28;20033;-77
2021/08/11 08:35:23;;;;;;;20.55;12.07;;;;;;;;;;5031528;28;20112;-78
2021/08/11 08:37:48;;;;;;;19.23;12.88;;;;;;;;;;5029024;28;20029;-77
2021/08/11 08:40:14;;;;;;;16.80;11.90;;;;;;;;;;5009784;28;20033;-78
2021/08/11 08:42:41;;;;;;;18.75;12.48;;;;;;;;;;5033848;28;20079;-78
2021/08/11 08:45:07;;;;;;;17.35;11.95;;;;;;;;;;5031254;28;20425;-78
2021/08/11 08:47:35;;;;;;;21.33;12.95;;;;;;;;;;5024415;28;20027;-77
2021/08/11 08:50:02;;;;;;;16.90;11.65;;;;;;;;;;5035149;28;20029;-77
2021/08/11 08:52:28;;;;;;;17.83;12.18;;;;;;;;;;5030133;28;20048;-78
2021/08/11 08:54:57;;;;;;;17.38;11.65;;;;;;;;;;5030577;28;20057;-77
2021/08/11 08:57:23;;;;;;;17.05;12.05;;;;;;;;;;5029198;28;20388;-78
2021/08/11 08:59:49;;;;;;;17.58;12.65;;;;;;;;;;5027422;28;20029;-78
2021/08/11 09:02:15;;;;;;;17.88;12.25;;;;;;;;;;5027975;28;20037;-78
2021/08/11 09:04:41;;;;;;;20.55;12.20;;;;;;;;;;5027678;28;20041;-78
2021/08/11 09:07:14;;;;;;;20.50;11.77;;;;;;;;;;5025451;28;20021;-77
2021/08/11 09:09:40;;;;;;;20.67;12.43;;;;;;;;;;5028721;28;20065;-78
2021/08/11 09:12:11;;;;;;;19.90;12.80;;;;;;;;;;5029794;28;20044;-77
2021/08/11 09:14:37;;;;;;;17.98;12.43;;;;;;;;;;5025612;28;20033;-79
2021/08/11 09:17:03;;;;;;;18.25;12.20;;;;;;;;;;5024978;28;20041;-78
2021/08/11 09:19:45;;;;;;;19.00;11.90;;;;;;;;;;5025648;28;20042;-78
2021/08/11 09:22:13;;;;;;;15.97;11.57;;;;;;;;;;5025554;28;20040;-77
2021/08/11 09:24:40;;;;;;;18.73;11.10;;;;;;;;;;5024958;28;20539;-78
2021/08/11 09:27:24;;;;;;;17.23;11.27;;;;;;;;;;5031223;28;20021;-77
2021/08/11 09:30:17;;;;;;;16.20;11.77;;;;;;;;;;5032226;28;20048;-78
2021/08/11 09:32:51;;;;;;;14.82;11.57;;;;;;;;;;5030727;28;20033;-78
2021/08/11 09:35:19;;;;;;;16.50;12.25;;;;;;;;;;5030676;28;20021;-78
2021/08/11 09:37:45;;;;;;;16.92;11.90;;;;;;;;;;5030154;28;20026;-78
2021/08/11 09:40:13;;;;;;;14.65;11.88;;;;;;;;;;5015508;28;20044;-78
2021/08/11 09:42:39;;;;;;;15.43;11.02;;;;;;;;;;5015559;28;20036;-78
2021/08/11 09:45:08;;;;;;;11.98;9.57;;;;;;;;;;5029921;28;20049;-78
2021/08/11 09:47:34;;;;;;;12.70;9.25;;;;;;;;;;5025036;28;20124;-78
2021/08/11 09:50:06;;;;;;;11.88;7.70;;;;;;;;;;5032325;28;20069;-78
2021/08/11 09:52:52;;;;;;;10.32;8.02;;;;;;;;;;5021053;28;20109;-78
2021/08/11 09:55:18;;;;;;;7.18;4.88;;;;;;;;;;5034890;28;20024;-78
2021/08/11 09:57:45;;;;;;;9.45;5.85;;;;;;;;;;5031540;28;20120;-78
2021/08/11 10:00:14;;;;;;;9.63;6.00;;;;;;;;;;5015707;28;20042;-78
2021/08/11 10:02:43;;;;;;;7.53;5.13;;;;;;;;;;5015937;28;20045;-78
2021/08/11 10:05:29;;;;;;;7.72;4.30;;;;;;;;;;5025031;28;20025;-78
2021/08/11 10:07:54;;;;;;;5.93;4.18;;;;;;;;;;5029176;28;20032;-78
2021/08/11 10:10:20;;;;;;;5.55;3.50;;;;;;;;;;5032954;28;20026;-78
2021/08/11 10:12:48;;;;;;;7.60;4.57;;;;;;;;;;5028912;28;20025;-78
2021/08/11 10:15:14;;;;;;;8.07;4.22;;;;;;;;;;5028224;28;20044;-78
2021/08/11 10:17:41;;;;;;;8.35;5.70;;;;;;;;;;5034520;28;20029;-78
2021/08/11 10:20:07;;;;;;;7.97;5.43;;;;;;;;;;5020034;28;20119;-78
2021/08/11 10:22:33;;;;;;;7.65;4.90;;;;;;;;;;5013441;28;20412;-79
2021/08/11 10:24:59;;;;;;;6.68;4.43;;;;;;;;;;5033415;28;20036;-78
2021/08/11 10:27:26;;;;;;;6.60;4.10;;;;;;;;;;5019138;28;20117;-78
2021/08/11 10:29:53;;;;;;;5.00;3.30;;;;;;;;;;5036833;28;20072;-79
2021/08/11 10:32:19;;;;;;;5.25;2.67;;;;;;;;;;5036658;28;20369;-78
2021/08/11 10:34:46;;;;;;;4.53;2.40;;;;;;;;;;5052476;28;20508;-78
2021/08/11 10:37:13;;;;;;;5.63;2.88;;;;;;;;;;5019576;28;20038;-79
2021/08/11 10:39:42;;;;;;;5.90;3.20;;;;;;;;;;5019935;28;20366;-78
2021/08/11 10:42:15;;;;;;;5.03;2.85;;;;;;;;;;5032322;28;20021;-78
2021/08/11 10:44:41;;;;;;;;;;;;;;;;;;5032596;28;20088;-78
2021/08/11 10:47:08;;;;;;;4.88;2.50;;;;;;;;;;5029730;28;20284;-78
2021/08/11 10:49:50;;;;;;;6.03;2.67;;;;;;;;;;5034211;28;20045;-78
2021/08/11 10:52:16;;;;;;;5.75;3.17;;;;;;;;;;5030595;28;20022;-79
2021/08/11 10:54:53;;;;;;;5.50;3.47;;;;;;;;;;5022757;28;20033;-78
2021/08/11 10:57:42;;;;;;;7.85;4.25;;;;;;;;;;5031225;28;20405;-78
2021/08/11 11:00:31;;;;;;;6.00;4.07;;;;;;;;;;5030341;28;20410;-78
2021/08/11 11:02:57;;;;;;;6.93;3.38;;;;;;;;;;5027614;28;20033;-78
2021/08/11 11:05:24;;;;;;;7.30;4.20;;;;;;;;;;5028023;28;20428;-78
2021/08/11 11:08:14;;;;;;;4.75;3.22;;;;;;;;;;5024383;28;20035;-78
2021/08/11 11:10:42;;;;;;;5.95;3.58;;;;;;;;;;5027113;28;20576;-79
2021/08/11 11:13:23;;;;;;;4.75;2.85;;;;;;;;;;5022799;28;20033;-79
2021/08/11 11:15:49;;;;;;;5.63;3.08;;;;;;;;;;5034954;28;20044;-79
2021/08/11 11:18:23;;;;;;;4.82;2.97;;;;;;;;;;5031998;28;20091;-79
2021/08/11 11:21:10;;;;;;;4.90;2.70;;;;;;;;;;5027049;28;20496;-78
2021/08/11 11:23:41;;;;;;;4.45;2.50;;;;;;;;;;5026508;28;20037;-78
2021/08/11 11:26:10;;;;;;;6.82;2.67;;;;;;;;;;5034517;28;20040;-79
2021/08/11 11:28:58;;;;;;;4.00;2.30;;;;;;;;;;5026046;28;20441;-79
2021/08/11 11:31:53;;;;;;;3.97;2.55;;;;;;;;;;5031469;28;20140;-78
2021/08/11 11:34:18;;;;;;;5.57;2.80;;;;;;;;;;5026618;28;20029;-78
2021/08/11 11:36:56;;;;;;;4.70;2.95;;;;;;;;;;5023446;28;20034;-79
2021/08/11 11:39:23;;;;;;;5.43;2.95;;;;;;;;;;5029108;28;20069;-78
2021/08/11 11:42:07;;;;;;;5.78;3.10;;;;;;;;;;5028948;28;20057;-78
2021/08/11 11:44:41;;;;;;;4.13;2.65;;;;;;;;;;5028082;28;20037;-78
2021/08/11 11:47:07;;;;;;;4.85;2.80;;;;;;;;;;5027339;28;20030;-78
2021/08/11 11:49:32;;;;;;;4.38;2.60;;;;;;;;;;5029843;28;20163;-78
2021/08/11 11:51:58;;;;;;;5.05;2.80;;;;;;;;;;5028287;28;20099;-78
2021/08/11 11:54:24;;;;;;;5.63;2.70;;;;;;;;;;5026089;28;20057;-78
2021/08/11 11:56:49;;;;;;;3.90;2.67;;;;;;;;;;5024619;28;20031;-78
2021/08/11 11:59:15;;;;;;;4.25;2.58;;;;;;;;;;5031104;28;20033;-78
2021/08/11 12:01:41;;;;;;;6.25;2.97;;;;;;;;;;5031085;28;20013;-78
2021/08/11 12:04:09;;;;;;;6.20;2.97;;;;;;;;;;5026246;28;20397;-77
2021/08/11 12:06:45;;;;;;;5.18;3.40;;;;;;;;;;5030742;28;20030;-77
2021/08/11 12:09:10;;;;;;;5.22;2.78;;;;;;;;;;5021019;28;20049;-78
2021/08/11 12:11:36;;;;;;;4.93;2.75;;;;;;;;;;5029083;28;20040;-78
2021/08/11 12:14:03;;;;;;;4.65;2.70;;;;;;;;;;5027975;28;20040;-78
2021/08/11 12:16:40;;;;;;;4.53;2.60;;;;;;;;;;5024369;28;20037;-79
2021/08/11 12:19:16;;;;;;;5.38;2.60;;;;;;;;;;5030034;28;20021;-78
2021/08/11 12:21:44;;;;;;;4.60;2.58;;;;;;;;;;5036539;28;20063;-79
2021/08/11 12:24:09;;;;;;;4.45;2.60;;;;;;;;;;5022678;28;20098;-79
2021/08/11 12:26:37;;;;;;;4.00;2.58;;;;;;;;;;5021742;28;20144;-79
2021/08/11 12:29:17;;;;;;;4.47;2.50;;;;;;;;;;5009832;28;20033;-78
2021/08/11 12:31:45;;;;;;;5.47;2.90;;;;;;;;;;5032264;28;20082;-79
2021/08/11 12:34:11;;;;;;;4.28;2.70;;;;;;;;;;4993184;28;20485;-79
2021/08/11 12:36:40;;;;;;;4.88;2.70;;;;;;;;;;5026283;28;20041;-79
2021/08/11 12:39:14;;;;;;;4.82;2.80;;;;;;;;;;5028768;28;20573;-79
2021/08/11 12:41:41;;;;;;;5.28;3.00;;;;;;;;;;5031974;28;20036;-80
2021/08/11 12:44:23;;;;;;;4.20;2.45;;;;;;;;;;5024233;28;20040;-79
2021/08/11 12:47:05;;;;;;;4.90;3.20;;;;;;;;;;5021362;28;20826;-79
2021/08/11 12:49:49;;;;;;;5.15;3.00;;;;;;;;;;5005358;28;20053;-79
2021/08/11 12:55:05;;;;;;;6.78;2.75;;;;;;;;;;5030294;28;20038;-79
2021/08/11 12:57:39;;;;;;;4.57;2.40;;;;;;;;;;5039997;28;20037;-79
2021/08/11 13:00:06;;;;;;;4.85;2.85;;;;;;;;;;5022468;28;20051;-79
2021/08/11 13:02:32;;;;;;;6.45;2.60;;;;;;;;;;5010269;28;20030;-79
2021/08/11 13:05:11;;;;;;;4.80;2.90;;;;;;;;;;5006090;28;20034;-79
2021/08/11 13:07:59;;;;;;;5.07;2.70;;;;;;;;;;5037486;28;20677;-79
2021/08/11 13:10:30;;;;;;;5.15;2.55;;;;;;;;;;5027483;28;20451;-79
2021/08/11 13:12:57;;;;;;;5.97;3.10;;;;;;;;;;5021237;28;20029;-79
2021/08/11 13:15:25;;;;;;;4.65;2.55;;;;;;;;;;5028587;28;20036;-79
2021/08/11 13:18:00;;;;;;;4.43;2.47;;;;;;;;;;5032141;28;20043;-80
2021/08/11 13:20:29;;;;;;;4.60;2.78;;;;;;;;;;5032366;28;20028;-79
2021/08/11 13:23:06;;;;;;;4.35;2.53;;;;;;;;;;5033150;28;20134;-80
2021/08/11 13:25:33;;;;;;;4.22;2.70;;;;;;;;;;5033494;28;20488;-80
2021/08/11 13:27:59;;;;;;;4.30;2.40;;;;;;;;;;5036514;28;20036;-79
2021/08/11 13:30:25;;;;;;;6.38;2.92;;;;;;;;;;5013587;28;20025;-79
2021/08/11 13:32:52;;;;;;;6.70;2.60;;;;;;;;;;5033601;28;20163;-80
2021/08/11 13:35:18;;;;;;;4.28;2.70;;;;;;;;;;5027310;28;20036;-81
2021/08/11 13:37:44;;;;;;;7.43;2.75;;;;;;;;;;5024229;28;20571;-81
2021/08/11 13:40:12;;;;;;;21.40;3.85;;;;;;;;;;5010013;28;20037;-80
2021/08/11 13:42:37;;;;;;;5.43;2.50;;;;;;;;;;5026936;28;20087;-80
2021/08/11 13:45:03;;;;;;;6.47;2.70;;;;;;;;;;5026346;28;20040;-80
2021/08/11 13:47:29;;;;;;;4.32;2.47;;;;;;;;;;5032587;28;20032;-80
2021/08/11 13:49:54;;;;;;;5.85;2.60;;;;;;;;;;5033499;28;20029;-80
2021/08/11 13:52:21;;;;;;;4.20;2.30;;;;;;;;;;5039584;28;20033;-80
2021/08/11 13:54:47;;;;;;;5.22;2.50;;;;;;;;;;5035736;28;20029;-80
2021/08/11 13:57:12;;;;;;;4.28;2.50;;;;;;;;;;5030271;28;20889;-81
2021/08/11 13:59:38;;;;;;;4.70;2.55;;;;;;;;;;5031398;28;20125;-81
2021/08/11 14:02:04;;;;;;;4.05;2.40;;;;;;;;;;4997336;28;20116;-81
2021/08/11 14:04:31;;;;;;;6.15;2.80;;;;;;;;;;5014100;28;20044;-81
2021/08/11 14:07:00;;;;;;;3.53;2.42;;;;;;;;;;5020536;28;20040;-81
2021/08/11 14:09:25;;;;;;;3.80;2.58;;;;;;;;;;5030886;28;20159;-81
2021/08/11 14:11:50;;;;;;;4.97;2.38;;;;;;;;;;5015215;28;20108;-81
2021/08/11 14:14:16;;;;;;;5.47;2.90;;;;;;;;;;4995212;28;20033;-81
2021/08/11 14:16:41;;;;;;;5.25;2.65;;;;;;;;;;5014034;28;20552;-80
2021/08/11 14:19:06;;;;;;;6.18;2.67;;;;;;;;;;5010938;28;20038;-80
2021/08/11 14:21:32;;;;;;;5.43;2.72;;;;;;;;;;5013174;28;20033;-82
2021/08/11 14:23:58;;;;;;;4.47;2.60;;;;;;;;;;5031108;28;20052;-82
2021/08/11 14:26:24;;;;;;;4.85;2.45;;;;;;;;;;5032212;28;20388;-80
2021/08/11 14:28:50;;;;;;;5.00;2.60;;;;;;;;;;5025425;28;20037;-80
2021/08/11 14:31:16;;;;;;;5.65;2.70;;;;;;;;;;5032067;28;20036;-81
2021/08/11 14:33:41;;;;;;;4.70;2.53;;;;;;;;;;4994998;28;20078;-80
2021/08/11 14:36:07;;;;;;;4.57;2.47;;;;;;;;;;5029780;28;20049;-81
2021/08/11 14:38:33;;;;;;;7.03;2.70;;;;;;;;;;5037208;28;20029;-81